createdAt,value
2023-03-31T00:03:03.298Z,2.10
2023-03-31T00:07:06.274Z,2.40
2023-03-31T00:11:09.570Z,2.47
2023-03-31T00:15:11.829Z,2.10
2023-03-31T00:19:18.410Z,2.20
2023-03-31T00:23:18.857Z,2.43
2023-03-31T00:27:19.787Z,2.30
2023-03-31T00:31:21.053Z,2.40
2023-03-31T00:35:24.301Z,2.10
2023-03-31T00:39:25.604Z,1.93
2023-03-31T00:43:36.325Z,2.40
2023-03-31T00:47:39.261Z,2.40
2023-03-31T00:51:44.230Z,2.40
2023-03-31T00:55:51.598Z,2.10
2023-03-31T00:59:57.171Z,2.03
2023-03-31T01:03:59.888Z,2.20
2023-03-31T01:08:05.932Z,2.67
2023-03-31T01:12:13.653Z,2.33
2023-03-31T01:16:14.505Z,3.10
2023-03-31T01:20:32.027Z,2.17
2023-03-31T01:25:39.092Z,2.70
2023-03-31T01:30:13.294Z,2.37
2023-03-31T01:35:19.842Z,2.40
2023-03-31T01:40:09.881Z,3.00
2023-03-31T01:44:25.471Z,3.10
2023-03-31T01:48:39.735Z,3.67
2023-03-31T01:52:50.710Z,6.03
2023-03-31T01:57:05.838Z,5.50
2023-03-31T02:01:20.086Z,4.60
2023-03-31T02:05:26.187Z,3.90
2023-03-31T02:09:34.374Z,3.93
2023-03-31T02:13:42.176Z,4.13
2023-03-31T02:17:47.520Z,4.53
2023-03-31T02:21:53.052Z,4.93
2023-03-31T02:26:02.543Z,5.70
2023-03-31T02:30:09.723Z,5.60
2023-03-31T02:34:10.467Z,5.03
2023-03-31T02:38:11.972Z,3.87
2023-03-31T02:42:15.553Z,3.87
2023-03-31T02:46:18.692Z,3.20
2023-03-31T02:50:19.627Z,3.90
2023-03-31T02:54:46.647Z,3.40
2023-03-31T02:59:09.214Z,3.17
2023-03-31T03:03:32.183Z,2.90
2023-03-31T03:07:45.965Z,2.60
2023-03-31T03:11:57.680Z,2.80
2023-03-31T03:16:07.087Z,2.77
2023-03-31T03:20:12.843Z,2.60
2023-03-31T03:24:15.903Z,2.20
2023-03-31T03:28:16.236Z,2.43
2023-03-31T03:32:17.268Z,3.00
2023-03-31T03:36:20.728Z,2.47
2023-03-31T03:40:21.678Z,2.50
2023-03-31T03:44:24.899Z,2.10
2023-03-31T03:48:26.993Z,2.80
2023-03-31T03:52:30.048Z,2.70
2023-03-31T03:56:30.665Z,2.73
2023-03-31T04:00:31.119Z,3.00
2023-03-31T04:04:31.543Z,2.43
2023-03-31T04:08:38.340Z,2.80
2023-03-31T04:12:39.269Z,2.93
2023-03-31T04:16:41.033Z,3.00
2023-03-31T04:20:41.475Z,2.87
2023-03-31T04:24:46.188Z,2.63
2023-03-31T04:28:50.974Z,2.87
2023-03-31T04:32:53.598Z,3.27
2023-03-31T04:36:56.426Z,3.80
2023-03-31T04:41:00.017Z,4.63
2023-03-31T04:45:03.047Z,3.30
2023-03-31T04:49:06.473Z,3.00
2023-03-31T04:53:07.893Z,3.30
2023-03-31T04:57:11.638Z,3.73
2023-03-31T05:01:13.879Z,3.53
2023-03-31T05:05:16.185Z,3.33
2023-03-31T05:09:16.600Z,3.57
2023-03-31T05:13:19.606Z,3.10
2023-03-31T05:17:20.776Z,3.13
2023-03-31T05:21:23.676Z,3.50
2023-03-31T05:25:24.469Z,3.27
2023-03-31T05:29:29.999Z,3.77
2023-03-31T05:33:31.194Z,3.70
2023-03-31T05:37:31.875Z,3.90
2023-03-31T05:41:33.129Z,3.90
2023-03-31T05:45:36.008Z,4.83
2023-03-31T05:49:36.734Z,8.97
2023-03-31T05:53:37.642Z,6.53
2023-03-31T05:57:38.092Z,7.20
2023-03-31T06:01:41.787Z,6.10
2023-03-31T06:05:42.877Z,5.83
2023-03-31T06:09:44.571Z,5.93
2023-03-31T06:13:45.937Z,5.50
2023-03-31T06:17:51.485Z,4.77
2023-03-31T06:21:52.895Z,4.50
2023-03-31T06:25:54.444Z,4.10
2023-03-31T06:29:55.127Z,3.70
2023-03-31T06:33:58.958Z,3.67
2023-03-31T06:38:00.194Z,3.67
2023-03-31T06:42:01.357Z,3.67
2023-03-31T06:46:02.301Z,5.77
2023-03-31T06:50:05.489Z,6.43
2023-03-31T06:54:06.513Z,4.60
2023-03-31T06:58:07.903Z,3.50
2023-03-31T07:02:08.395Z,3.90
2023-03-31T07:06:12.236Z,6.23
2023-03-31T07:10:13.357Z,5.30
2023-03-31T07:14:15.164Z,4.33
2023-03-31T07:18:16.015Z,6.30
2023-03-31T07:22:19.657Z,8.20
2023-03-31T07:26:20.181Z,9.10
2023-03-31T07:30:23.364Z,4.80
2023-03-31T07:34:23.775Z,4.97
2023-03-31T07:38:26.939Z,4.50
2023-03-31T07:42:29.105Z,4.60
2023-03-31T07:46:33.537Z,4.90
2023-03-31T07:50:34.397Z,4.97
2023-03-31T07:54:40.462Z,4.70
2023-03-31T07:58:41.316Z,5.10
2023-03-31T08:02:43.422Z,5.07
2023-03-31T08:06:46.487Z,5.60
2023-03-31T08:10:52.065Z,5.10
2023-03-31T08:14:54.420Z,5.23
2023-03-31T08:18:55.205Z,5.00
2023-03-31T08:22:55.773Z,5.87
2023-03-31T08:26:59.437Z,6.23
2023-03-31T08:31:05.530Z,5.63
2023-03-31T08:35:06.774Z,7.07
2023-03-31T08:39:07.822Z,5.60
2023-03-31T08:43:21.100Z,6.43
2023-03-31T08:47:27.317Z,6.73
2023-03-31T08:51:32.443Z,6.97
2023-03-31T08:55:40.291Z,6.93
2023-03-31T08:59:44.765Z,6.30
2023-03-31T09:04:10.264Z,6.37
2023-03-31T09:08:34.039Z,5.37
2023-03-31T09:12:47.301Z,5.20
2023-03-31T09:16:59.710Z,5.23
2023-03-31T09:21:11.465Z,3.57
2023-03-31T09:25:20.183Z,4.00
2023-03-31T09:29:27.485Z,3.87
2023-03-31T09:33:34.719Z,4.40
2023-03-31T09:37:36.399Z,3.60
2023-03-31T09:41:37.179Z,3.70
2023-03-31T09:45:41.545Z,3.80
2023-03-31T09:49:54.156Z,3.40
2023-03-31T09:54:01.724Z,3.63
2023-03-31T09:58:04.831Z,3.67
2023-03-31T10:02:18.324Z,3.33
2023-03-31T10:06:24.096Z,3.77
2023-03-31T10:10:34.285Z,3.40
2023-03-31T10:14:45.469Z,3.50
2023-03-31T10:18:47.636Z,2.97
2023-03-31T10:22:53.801Z,3.10
2023-03-31T10:27:00.474Z,3.37
2023-03-31T10:31:18.162Z,3.33
2023-03-31T10:35:29.560Z,2.78
2023-03-31T10:39:36.041Z,2.72
2023-03-31T10:43:47.120Z,3.03
2023-03-31T10:47:58.317Z,2.30
2023-03-31T10:52:02.811Z,2.30
2023-03-31T10:56:35.296Z,2.47
2023-03-31T11:00:47.424Z,2.17
2023-03-31T11:05:01.857Z,2.10
2023-03-31T11:09:23.891Z,2.13
2023-03-31T11:13:38.323Z,2.42
2023-03-31T11:18:01.949Z,2.00
2023-03-31T11:22:12.918Z,2.00
2023-03-31T11:26:30.496Z,1.90
2023-03-31T11:30:43.235Z,2.28
2023-03-31T11:35:01.259Z,2.53
2023-03-31T11:39:28.061Z,2.00
2023-03-31T11:43:38.460Z,2.03
2023-03-31T11:47:48.501Z,2.00
2023-03-31T11:51:58.762Z,1.67
2023-03-31T11:56:05.614Z,2.53
2023-03-31T12:00:21.153Z,2.60
2023-03-31T12:04:37.548Z,2.27
2023-03-31T12:08:44.916Z,2.77
2023-03-31T12:12:53.525Z,2.33
2023-03-31T12:16:59.611Z,2.93
2023-03-31T12:21:07.716Z,2.83
2023-03-31T12:25:15.298Z,2.13
2023-03-31T12:29:28.713Z,2.40
2023-03-31T12:33:36.901Z,1.63
2023-03-31T12:38:16.516Z,1.83
2023-03-31T12:42:45.405Z,1.57
2023-03-31T12:47:23.998Z,1.40
2023-03-31T12:51:47.066Z,5.00
2023-03-31T12:55:52.600Z,2.30
2023-03-31T13:00:27.097Z,1.50
2023-03-31T13:04:31.089Z,1.15
2023-03-31T13:08:57.824Z,1.00
2023-03-31T13:13:19.900Z,1.10
2023-03-31T13:17:34.421Z,1.20
2023-03-31T13:21:54.773Z,1.67
2023-03-31T13:25:56.433Z,1.20
2023-03-31T13:29:59.404Z,1.00
2023-03-31T13:34:02.487Z,1.02
2023-03-31T13:38:23.464Z,1.23
2023-03-31T13:42:58.654Z,1.48
2023-03-31T13:47:56.734Z,1.52
2023-03-31T13:52:01.534Z,1.70
2023-03-31T13:56:48.235Z,0.97
2023-03-31T14:01:09.861Z,1.60
2023-03-31T14:05:31.766Z,1.00
2023-03-31T14:09:41.442Z,0.93
2023-03-31T14:13:41.874Z,1.10
2023-03-31T14:17:45.213Z,1.03
2023-03-31T14:21:58.417Z,0.97
2023-03-31T14:26:10.392Z,1.30
2023-03-31T14:30:22.869Z,1.27
2023-03-31T14:35:01.305Z,1.30
2023-03-31T14:39:16.241Z,1.70
2023-03-31T14:43:25.622Z,1.33
2023-03-31T14:47:29.401Z,1.00
2023-03-31T14:51:34.252Z,1.10
2023-03-31T14:55:57.271Z,0.93
2023-03-31T14:59:59.190Z,1.03
2023-03-31T15:03:59.820Z,1.00
2023-03-31T15:08:03.053Z,1.33
2023-03-31T15:12:11.743Z,1.00
2023-03-31T15:16:35.747Z,1.40
2023-03-31T15:20:43.041Z,1.10
2023-03-31T15:24:43.658Z,1.40
2023-03-31T15:28:58.091Z,1.27
2023-03-31T15:33:11.731Z,1.20
2023-03-31T15:37:28.160Z,1.15
2023-03-31T15:41:34.250Z,1.52
2023-03-31T15:45:59.709Z,1.20
2023-03-31T15:50:07.824Z,1.55
2023-03-31T15:54:48.139Z,2.03
2023-03-31T15:59:00.181Z,1.57
2023-03-31T16:03:05.849Z,1.30
2023-03-31T16:07:12.608Z,1.60
2023-03-31T16:11:16.943Z,0.90
2023-03-31T16:15:25.863Z,1.87
2023-03-31T16:19:34.392Z,1.30
2023-03-31T16:23:41.370Z,0.97
2023-03-31T16:27:49.955Z,4.00
2023-03-31T16:31:51.176Z,1.57
2023-03-31T16:35:59.127Z,1.20
2023-03-31T16:40:00.902Z,1.30
2023-03-31T16:44:01.790Z,1.20
2023-03-31T16:48:15.090Z,1.70
2023-03-31T16:52:19.939Z,1.70
2023-03-31T16:56:20.544Z,1.50
2023-03-31T17:00:22.592Z,1.20
2023-03-31T17:04:25.693Z,1.30
2023-03-31T17:08:31.635Z,1.70
2023-03-31T17:12:32.349Z,1.40
2023-03-31T17:16:40.567Z,1.17
2023-03-31T17:20:48.743Z,1.20
2023-03-31T17:24:58.681Z,3.50
2023-03-31T17:29:00.894Z,2.97
2023-03-31T17:33:01.929Z,4.90
2023-03-31T17:37:03.069Z,3.53
2023-03-31T17:41:10.772Z,3.53
2023-03-31T17:45:14.421Z,2.97
2023-03-31T17:49:14.838Z,1.77
2023-03-31T17:53:15.325Z,1.40
2023-03-31T17:57:18.941Z,1.37
2023-03-31T18:01:19.743Z,1.40
2023-03-31T18:05:20.651Z,1.30
2023-03-31T18:09:21.260Z,2.10
2023-03-31T18:13:24.650Z,2.10
2023-03-31T18:17:25.267Z,1.50
2023-03-31T18:21:26.435Z,1.60
2023-03-31T18:25:27.707Z,1.20
2023-03-31T18:29:31.545Z,1.40
2023-03-31T18:33:32.294Z,1.70
2023-03-31T18:37:34.100Z,2.33
2023-03-31T18:41:34.845Z,3.20
2023-03-31T18:45:38.735Z,2.30
2023-03-31T18:49:39.470Z,3.53
2023-03-31T18:53:40.993Z,4.13
2023-03-31T18:57:42.418Z,4.00
2023-03-31T19:01:47.201Z,2.50
2023-03-31T19:05:50.082Z,1.87
2023-03-31T19:09:50.536Z,1.60
2023-03-31T19:13:52.227Z,1.40
2023-03-31T19:17:56.991Z,2.10
2023-03-31T19:21:57.763Z,1.17
2023-03-31T19:26:00.831Z,1.73
2023-03-31T19:30:02.070Z,1.67
2023-03-31T19:34:11.286Z,1.03
2023-03-31T19:38:12.250Z,1.30
2023-03-31T19:42:15.296Z,1.10
2023-03-31T19:46:15.890Z,1.00
2023-03-31T19:50:19.259Z,1.77
2023-03-31T19:54:21.622Z,1.20
2023-03-31T19:58:22.771Z,1.23
2023-03-31T20:02:24.410Z,1.00
2023-03-31T20:06:30.772Z,0.80
2023-03-31T20:10:34.149Z,0.80
2023-03-31T20:14:35.447Z,1.17
2023-03-31T20:18:37.661Z,1.00
2023-03-31T20:22:42.301Z,1.00
2023-03-31T20:26:42.907Z,1.20
2023-03-31T20:30:43.448Z,1.20
2023-03-31T20:34:44.476Z,0.73
2023-03-31T20:38:51.444Z,0.90
2023-03-31T20:42:52.394Z,1.03
2023-03-31T20:46:52.924Z,1.20
2023-03-31T20:50:54.425Z,1.27
2023-03-31T20:55:00.145Z,1.10
2023-03-31T20:59:02.727Z,0.80
2023-03-31T21:03:03.659Z,0.80
2023-03-31T21:07:04.475Z,0.80
2023-03-31T21:11:08.029Z,0.80
2023-03-31T21:15:10.115Z,0.70
2023-03-31T21:19:10.784Z,0.80
2023-03-31T21:23:11.371Z,0.67
2023-03-31T21:27:14.791Z,0.80
2023-03-31T21:31:18.208Z,0.70
2023-03-31T21:35:20.239Z,0.70
2023-03-31T21:39:21.611Z,0.70
2023-03-31T21:43:26.193Z,0.80
2023-03-31T21:47:26.968Z,0.57
2023-03-31T21:51:28.855Z,0.60
2023-03-31T21:55:31.857Z,0.97
2023-03-31T21:59:35.682Z,0.80
2023-03-31T22:03:38.751Z,0.90
2023-03-31T22:07:39.843Z,0.73
2023-03-31T22:11:40.999Z,0.57
2023-03-31T22:15:47.291Z,0.90
2023-03-31T22:19:48.277Z,1.10
2023-03-31T22:23:49.137Z,0.80
2023-03-31T22:27:49.806Z,0.80
2023-03-31T22:31:52.919Z,0.60
2023-03-31T22:35:53.446Z,0.60
2023-03-31T22:39:53.789Z,0.90
2023-03-31T22:43:55.131Z,0.90
2023-03-31T22:47:59.334Z,1.00
2023-03-31T22:52:00.268Z,0.63
2023-03-31T22:56:06.709Z,0.77
2023-03-31T23:00:09.667Z,1.10
2023-03-31T23:04:13.068Z,0.90
2023-03-31T23:08:13.444Z,0.87
2023-03-31T23:12:14.005Z,0.90
2023-03-31T23:16:20.099Z,0.80
2023-03-31T23:20:23.594Z,1.00
2023-03-31T23:24:25.278Z,0.90
2023-03-31T23:28:26.508Z,0.90
2023-03-31T23:32:26.983Z,0.90
2023-03-31T23:36:32.121Z,1.27
2023-03-31T23:40:32.561Z,1.40
2023-03-31T23:44:33.288Z,1.13
2023-03-31T23:48:34.331Z,1.30
2023-03-31T23:52:38.263Z,1.10
2023-03-31T23:56:39.324Z,1.30
